Time;durP1;ratioP1;P1;durP2;ratioP2;P2;SDS_P1;SDS_P2;PMS_P1;PMS_P2;Temp;Humidity;BMP_temperature;BMP_pressure;BME280_temperature;BME280_humidity;BME280_pressure;Samples;Min_cycle;Max_cycle;Signal;HPM_P1;HPM_P2
2023/04/08 00:00:11;;;;;;;10.60;8.60;;;;;;;10.40;74.48;100163.51;106032;1255;73855;-73
2023/04/08 00:02:42;;;;;;;10.70;9.30;;;;;;;10.37;74.71;100160.23;106080;1251;60459;-72
2023/04/08 00:05:10;;;;;;;10.70;8.80;;;;;;;10.35;74.77;100156.94;106106;1251;60472;-76
2023/04/08 00:07:40;;;;;;;13.50;9.30;;;;;;;10.28;74.36;100156.03;106028;1256;72960;-72
2023/04/08 00:10:09;;;;;;;13.20;10.10;;;;;;;10.20;74.43;100154.52;106056;1251;70762;-75
2023/04/08 00:12:37;;;;;;;11.00;9.90;;;;;;;10.16;74.94;100154.42;105858;1251;72876;-72
2023/04/08 00:15:06;;;;;;;12.70;9.80;;;;;;;10.10;74.59;100155.20;105738;1256;61618;-73
2023/04/08 00:17:34;;;;;;;11.90;9.30;;;;;;;10.11;74.54;100153.66;106103;1256;60424;-74
2023/04/08 00:20:03;;;;;;;10.50;9.10;;;;;;;10.12;74.57;100152.66;105951;1257;73275;-72
2023/04/08 00:22:31;;;;;;;11.20;9.70;;;;;;;10.08;74.75;100155.73;106104;1251;71055;-76
2023/04/08 00:25:00;;;;;;;13.20;10.20;;;;;;;10.06;74.86;100159.48;105974;1256;71920;-73
2023/04/08 00:27:37;;;;;;;11.90;9.90;;;;;;;10.02;75.06;100162.63;106140;1254;60411;-73
2023/04/08 00:30:06;;;;;;;11.60;10.20;;;;;;;10.00;75.27;100162.89;106056;1252;61227;-73
2023/04/08 00:32:35;;;;;;;13.90;11.30;;;;;;;10.00;75.51;100160.04;106037;1251;74326;-78
2023/04/08 00:35:04;;;;;;;16.50;13.80;;;;;;;9.99;75.64;100162.27;106026;1251;71322;-73
2023/04/08 00:37:33;;;;;;;15.30;12.00;;;;;;;9.95;75.88;100163.70;106051;1255;74350;-74
2023/04/08 00:40:03;;;;;;;13.90;11.10;;;;;;;10.00;76.00;100164.96;105883;1252;62934;-75
2023/04/08 00:42:32;;;;;;;14.00;12.50;;;;;;;10.06;75.98;100164.98;105873;1256;60797;-73
2023/04/08 00:45:00;;;;;;;14.70;11.90;;;;;;;10.04;75.51;100167.26;106086;1254;74820;-73
2023/04/08 00:47:30;;;;;;;13.00;10.90;;;;;;;10.02;75.59;100162.48;105994;1252;71434;-72
2023/04/08 00:49:58;;;;;;;15.40;12.30;;;;;;;10.02;75.36;100166.41;106010;1256;71599;-72
2023/04/08 00:52:26;;;;;;;15.70;12.90;;;;;;;10.00;75.07;100166.59;106075;1251;61005;-70
2023/04/08 00:54:57;;;;;;;16.30;13.00;;;;;;;9.98;75.06;100162.19;106067;1255;61166;-76
2023/04/08 00:57:25;;;;;;;16.50;12.10;;;;;;;9.96;75.25;100158.50;105970;1251;73453;-73
2023/04/08 00:59:59;;;;;;;17.00;11.90;;;;;;;10.06;75.27;100158.77;105987;1251;70570;-73
2023/04/08 01:02:58;;;;;;;19.70;13.30;;;;;;;10.09;75.28;100156.84;106103;1257;73574;-73
2023/04/08 01:05:40;;;;;;;15.90;12.50;;;;;;;10.05;75.86;100158.29;105958;1254;61383;-74
2023/04/08 01:08:08;;;;;;;17.30;13.50;;;;;;;10.03;76.21;100157.75;105910;1259;60428;-74
2023/04/08 01:10:40;;;;;;;16.50;12.10;;;;;;;10.03;76.29;100163.45;105819;1254;73297;-75
2023/04/08 01:13:10;;;;;;;17.50;12.70;;;;;;;10.01;76.27;100161.86;106048;1251;71014;-73
2023/04/08 01:15:40;;;;;;;16.60;12.60;;;;;;;9.99;76.53;100160.70;105732;1254;73302;-72
2023/04/08 01:18:11;;;;;;;17.40;12.70;;;;;;;9.96;76.55;100157.42;105994;1257;61733;-72
2023/04/08 01:20:41;;;;;;;14.90;11.90;;;;;;;10.03;76.62;100156.95;106072;1255;60336;-72
2023/04/08 01:23:15;;;;;;;16.70;11.50;;;;;;;10.08;76.76;100156.27;106184;1251;72613;-72
2023/04/08 01:26:02;;;;;;;16.40;11.60;;;;;;;10.06;77.13;100161.98;106138;1256;69429;-73
2023/04/08 01:28:30;;;;;;;13.10;10.30;;;;;;;10.02;77.38;100161.90;105981;1251;72118;-73
2023/04/08 01:30:59;;;;;;;14.70;11.50;;;;;;;10.01;77.62;100159.00;105980;1251;61238;-73
2023/04/08 01:33:28;;;;;;;16.10;12.30;;;;;;;10.01;77.95;100162.22;106022;1251;60645;-74
2023/04/08 01:36:01;;;;;;;17.50;12.30;;;;;;;10.01;78.60;100157.63;105850;1256;74950;-73
2023/04/08 01:38:30;;;;;;;16.80;12.80;;;;;;;10.11;78.53;100157.58;105922;1251;69306;-72
2023/04/08 01:40:58;;;;;;;16.90;13.60;;;;;;;10.16;78.83;100154.25;105978;1251;71628;-73
2023/04/08 01:43:26;;;;;;;15.50;12.50;;;;;;;10.15;79.56;100156.73;105945;1253;61555;-73
2023/04/08 01:45:57;;;;;;;16.60;12.80;;;;;;;10.14;79.87;100154.02;105799;1254;60535;-75
2023/04/08 01:48:26;;;;;;;14.80;11.70;;;;;;;10.14;80.35;100153.50;105798;1256;75165;-72
2023/04/08 01:50:55;;;;;;;13.40;10.50;;;;;;;10.15;80.87;100153.76;105920;1256;68369;-75
2023/04/08 01:53:23;;;;;;;12.10;10.30;;;;;;;10.25;80.83;100153.31;106035;1254;72853;-76
2023/04/08 01:55:56;;;;;;;17.90;10.80;;;;;;;10.32;81.07;100153.36;105984;1251;61346;-73
2023/04/08 01:58:24;;;;;;;14.50;11.20;;;;;;;10.28;81.04;100153.77;105960;1254;60485;-75
2023/04/08 02:00:52;;;;;;;16.20;11.40;;;;;;;10.22;81.43;100150.19;106133;1254;73869;-73
2023/04/08 02:03:22;;;;;;;12.50;10.50;;;;;;;10.20;81.87;100151.14;106042;1257;69532;-74
2023/04/08 02:05:50;;;;;;;11.40;10.10;;;;;;;10.21;82.24;100151.52;105955;1254;73903;-72
2023/04/08 02:08:18;;;;;;;13.10;11.70;;;;;;;10.31;81.90;100147.88;105596;1254;60897;-73
2023/04/08 02:10:49;;;;;;;15.20;13.60;;;;;;;10.37;81.70;100148.56;105951;1256;60534;-73
2023/04/08 02:13:17;;;;;;;15.40;13.20;;;;;;;10.33;81.75;100147.04;105671;1254;75235;-71
2023/04/08 02:15:50;;;;;;;14.70;13.00;;;;;;;10.27;82.16;100150.95;105582;1254;71367;-73
2023/04/08 02:18:27;;;;;;;15.80;13.30;;;;;;;10.22;82.47;100150.89;105711;1254;73607;-73
2023/04/08 02:20:58;;;;;;;12.50;10.80;;;;;;;10.22;83.09;100147.33;105964;1254;61291;-73
2023/04/08 02:23:32;;;;;;;15.50;10.40;;;;;;;10.31;82.91;100136.61;105935;1251;60392;-74
2023/04/08 02:26:00;;;;;;;13.80;11.40;;;;;;;10.33;82.70;100134.76;105844;1255;73800;-73
2023/04/08 02:28:28;;;;;;;14.60;12.40;;;;;;;10.25;83.11;100136.59;105873;1254;71513;-72
2023/04/08 02:30:59;;;;;;;12.80;10.50;;;;;;;10.19;83.36;100137.27;105626;1254;73744;-73
2023/04/08 02:33:29;;;;;;;14.80;11.90;;;;;;;10.17;83.74;100138.15;106135;1252;60533;-75
2023/04/08 02:35:58;;;;;;;13.00;10.40;;;;;;;10.18;83.75;100141.40;105596;1256;61021;-75
2023/04/08 02:38:32;;;;;;;12.70;11.00;;;;;;;10.30;83.41;100138.46;106043;1251;74136;-74
2023/04/08 02:41:00;;;;;;;11.50;9.00;;;;;;;10.38;83.46;100142.05;105567;1256;70691;-71
2023/04/08 02:43:31;;;;;;;10.70;9.00;;;;;;;10.37;83.17;100139.37;105707;1254;72552;-73
2023/04/08 02:46:02;;;;;;;14.50;9.70;;;;;;;10.36;83.29;100140.88;105713;1257;60267;-73
2023/04/08 02:48:31;;;;;;;10.70;9.40;;;;;;;10.34;83.41;100144.11;106004;1256;61233;-73
2023/04/08 02:51:00;;;;;;;10.20;8.90;;;;;;;10.31;83.43;100146.89;105907;1254;75078;-71
2023/04/08 02:53:30;;;;;;;10.30;9.20;;;;;;;10.38;82.97;100149.72;105922;1254;69876;-72
2023/04/08 02:55:59;;;;;;;10.20;9.10;;;;;;;10.41;82.78;100150.43;105948;1254;71900;-72
2023/04/08 02:58:27;;;;;;;9.90;8.80;;;;;;;10.38;82.81;100152.58;106041;1254;60611;-74
2023/04/08 03:00:56;;;;;;;11.60;10.20;;;;;;;10.35;82.85;100155.15;106020;1257;60588;-73
2023/04/08 03:03:29;;;;;;;19.40;16.50;;;;;;;10.33;82.80;100151.98;105874;1257;74052;-74
2023/04/08 03:05:58;;;;;;;18.90;16.80;;;;;;;10.33;82.67;100156.20;106065;1256;71296;-73
2023/04/08 03:08:26;;;;;;;21.00;17.30;;;;;;;10.40;82.34;100154.49;106109;1255;72444;-70
2023/04/08 03:10:55;;;;;;;21.00;16.60;;;;;;;10.40;82.48;100159.27;105704;1256;60603;-71
2023/04/08 03:13:24;;;;;;;17.90;15.50;;;;;;;10.35;82.57;100159.93;105667;1256;61088;-72
2023/04/08 03:15:52;;;;;;;19.20;15.70;;;;;;;10.31;82.81;100162.09;105968;1259;73539;-73
2023/04/08 03:18:20;;;;;;;18.40;13.90;;;;;;;10.29;82.94;100159.45;106228;1254;70753;-71
2023/04/08 03:20:49;;;;;;;15.20;12.60;;;;;;;10.37;82.72;100165.52;105515;1259;72646;-74
2023/04/08 03:23:17;;;;;;;15.30;13.30;;;;;;;10.43;82.58;100163.36;106096;1254;61358;-73
2023/04/08 03:25:45;;;;;;;15.00;11.80;;;;;;;10.39;82.56;100163.52;105924;1256;61686;-75
2023/04/08 03:28:14;;;;;;;15.80;11.40;;;;;;;10.36;82.58;100167.60;105965;1258;74620;-74
2023/04/08 03:30:43;;;;;;;13.60;11.20;;;;;;;10.29;82.78;100169.88;106133;1254;71150;-75
2023/04/08 03:33:12;;;;;;;17.90;10.70;;;;;;;10.25;82.98;100169.95;106316;1254;71745;-73
2023/04/08 03:35:40;;;;;;;13.90;10.90;;;;;;;10.30;83.05;100164.89;106151;1255;64484;-76
2023/04/08 03:38:09;;;;;;;14.50;11.30;;;;;;;10.33;82.84;100162.63;106080;1254;61236;-75
2023/04/08 03:40:37;;;;;;;14.70;11.80;;;;;;;10.25;83.16;100163.91;105998;1257;74549;-74
2023/04/08 03:43:07;;;;;;;14.30;12.10;;;;;;;10.16;83.43;100166.73;105903;1256;69534;-73
2023/04/08 03:45:36;;;;;;;14.00;10.70;;;;;;;10.13;83.88;100169.38;106079;1254;73573;-74
2023/04/08 03:48:04;;;;;;;13.10;10.70;;;;;;;10.20;83.98;100168.33;106057;1256;63093;-75
2023/04/08 03:50:33;;;;;;;11.90;10.50;;;;;;;10.25;83.80;100165.49;106045;1254;61021;-76
2023/04/08 03:53:04;;;;;;;14.70;11.30;;;;;;;10.16;84.28;100167.46;105878;1256;74192;-74
2023/04/08 03:55:32;;;;;;;12.70;11.30;;;;;;;10.08;84.87;100172.78;106048;1254;69574;-75
2023/04/08 03:58:06;;;;;;;14.10;11.90;;;;;;;10.00;85.10;100172.61;106271;1256;73614;-74
2023/04/08 04:00:35;;;;;;;14.00;11.80;;;;;;;10.00;85.48;100174.19;106171;1252;61001;-73
2023/04/08 04:03:11;;;;;;;13.60;11.70;;;;;;;10.07;85.60;100170.31;106200;1254;61357;-74
2023/04/08 04:05:41;;;;;;;13.50;11.50;;;;;;;10.11;86.23;100175.10;105964;1255;74083;-72
2023/04/08 04:08:09;;;;;;;14.80;13.10;;;;;;;10.11;86.36;100176.55;106048;1254;70538;-74
2023/04/08 04:10:38;;;;;;;15.40;13.30;;;;;;;10.10;86.49;100176.61;105979;1254;73504;-74
2023/04/08 04:13:06;;;;;;;14.30;11.60;;;;;;;10.10;86.40;100173.80;106253;1254;62684;-72
2023/04/08 04:15:38;;;;;;;15.80;11.10;;;;;;;10.20;86.47;100175.20;106501;1254;60417;-72
2023/04/08 04:18:07;;;;;;;13.70;11.00;;;;;;;10.29;86.26;100174.36;106944;1256;74948;-72
2023/04/08 04:20:40;;;;;;;14.90;10.90;;;;;;;10.23;86.28;100176.98;107062;1254;68392;-72
2023/04/08 04:23:08;;;;;;;15.50;10.90;;;;;;;10.15;86.35;100175.96;106644;1254;72507;-69
2023/04/08 04:25:40;;;;;;;13.40;10.10;;;;;;;10.06;86.53;100180.36;106109;1254;62243;-72
2023/04/08 04:28:16;;;;;;;12.50;9.80;;;;;;;10.11;86.97;100180.21;106195;1259;60418;-70
2023/04/08 04:30:47;;;;;;;13.10;10.60;;;;;;;10.21;86.96;100179.36;106449;1254;72859;-71
2023/04/08 04:33:15;;;;;;;12.80;11.40;;;;;;;10.22;86.69;100188.23;106421;1256;70962;-70
2023/04/08 04:35:46;;;;;;;14.20;10.20;;;;;;;10.21;86.90;100187.82;106331;1254;73945;-71
2023/04/08 04:38:15;;;;;;;13.50;10.70;;;;;;;10.23;87.00;100193.34;106106;1253;63126;-73
2023/04/08 04:40:46;;;;;;;12.70;10.20;;;;;;;10.32;86.64;100195.67;106532;1254;60542;-70
2023/04/08 04:43:16;;;;;;;13.70;10.80;;;;;;;10.38;86.44;100193.81;106388;1256;73974;-72
2023/04/08 04:45:46;;;;;;;14.50;10.80;;;;;;;10.39;86.38;100192.65;106238;1254;70772;-70
2023/04/08 04:48:15;;;;;;;12.70;11.00;;;;;;;10.39;86.39;100195.83;106325;1254;72865;-70
2023/04/08 04:50:43;;;;;;;14.30;10.90;;;;;;;10.37;85.86;100194.23;106556;1254;61328;-70
2023/04/08 04:53:17;;;;;;;;;;;;;;;10.41;85.80;100193.85;106588;1254;60498;-72
2023/04/08 04:55:47;;;;;;;12.40;10.20;;;;;;;10.44;85.79;100196.04;106578;1254;71795;-71
2023/04/08 04:58:15;;;;;;;13.30;10.60;;;;;;;10.43;86.10;100201.90;106264;1261;71017;-71
2023/04/08 05:00:45;;;;;;;13.00;11.10;;;;;;;10.44;85.83;100207.36;106233;1259;72533;-72
2023/04/08 05:03:15;;;;;;;13.70;11.00;;;;;;;10.42;85.96;100207.68;106441;1254;61542;-71
2023/04/08 05:05:53;;;;;;;14.30;10.50;;;;;;;10.44;85.92;100210.20;107832;1256;60405;-71
2023/04/08 05:08:22;;;;;;;14.90;12.10;;;;;;;10.57;85.55;100210.63;107967;1254;73754;-70
2023/04/08 05:10:54;;;;;;;15.30;12.50;;;;;;;10.62;85.42;100216.11;108460;1254;70373;-71
2023/04/08 05:13:27;;;;;;;15.80;12.00;;;;;;;10.60;85.48;100216.23;108028;1256;71257;-70
2023/04/08 05:15:58;;;;;;;15.80;13.70;;;;;;;10.60;85.61;100212.24;108941;1254;59698;-69
2023/04/08 05:18:27;;;;;;;14.70;12.70;;;;;;;10.63;85.35;100216.58;109305;1254;60226;-72
2023/04/08 05:20:59;;;;;;;12.90;10.60;;;;;;;10.77;85.24;100218.85;109278;1253;73424;-71
2023/04/08 05:23:34;;;;;;;12.30;9.30;;;;;;;10.87;84.67;100218.38;107823;1254;70376;-73
2023/04/08 05:26:02;;;;;;;14.50;9.60;;;;;;;10.91;84.88;100222.24;107857;1254;72365;-70
2023/04/08 05:28:33;;;;;;;15.70;11.00;;;;;;;10.95;84.67;100220.22;108047;1252;61416;-72
2023/04/08 05:31:02;;;;;;;11.70;8.80;;;;;;;11.00;84.39;100219.64;107375;1258;60405;-70
2023/04/08 05:33:30;;;;;;;11.50;8.90;;;;;;;11.15;83.78;100220.42;106790;1254;74525;-70
2023/04/08 05:35:59;;;;;;;11.60;9.40;;;;;;;11.23;83.60;100222.33;107004;1256;68901;-69
2023/04/08 05:38:27;;;;;;;14.70;9.20;;;;;;;11.21;83.40;100218.95;107200;1254;72458;-71
2023/04/08 05:40:57;;;;;;;9.70;8.20;;;;;;;11.18;83.38;100212.98;107133;1256;60842;-72
2023/04/08 05:43:25;;;;;;;12.20;8.20;;;;;;;11.19;83.19;100215.60;107271;1254;59306;-71
2023/04/08 05:45:57;;;;;;;11.80;8.20;;;;;;;11.32;82.95;100217.97;107202;1252;72410;-70
2023/04/08 05:48:28;;;;;;;9.80;7.80;;;;;;;11.43;82.71;100215.50;107618;1254;71209;-71
2023/04/08 05:51:03;;;;;;;12.40;8.70;;;;;;;11.50;82.62;100220.55;108479;1254;71735;-69
2023/04/08 05:53:32;;;;;;;13.90;8.40;;;;;;;11.54;82.14;100219.89;107240;1252;60487;-71
2023/04/08 05:56:01;;;;;;;17.40;8.40;;;;;;;11.54;81.80;100217.77;107334;1254;61190;-72
2023/04/08 05:58:29;;;;;;;10.10;8.60;;;;;;;11.63;81.46;100215.39;107732;1255;73870;-72
2023/04/08 06:00:57;;;;;;;10.10;8.70;;;;;;;11.74;81.21;100208.59;108913;1254;68883;-70
2023/04/08 06:03:32;;;;;;;12.20;9.80;;;;;;;11.82;81.17;100205.96;107023;1253;71586;-72
2023/04/08 06:06:01;;;;;;;18.20;9.70;;;;;;;11.87;80.82;100209.14;106152;1255;60872;-71
2023/04/08 06:08:30;;;;;;;12.10;9.50;;;;;;;11.90;80.53;100213.75;106239;1257;61552;-70
2023/04/08 06:11:03;;;;;;;13.40;9.60;;;;;;;11.94;80.22;100217.02;105977;1260;74836;-73
2023/04/08 06:13:34;;;;;;;14.10;10.50;;;;;;;12.08;79.85;100221.48;105986;1256;70587;-72
2023/04/08 06:16:18;;;;;;;13.90;10.40;;;;;;;12.20;79.36;100224.62;105918;1256;73866;-70
2023/04/08 06:18:53;;;;;;;14.20;9.30;;;;;;;12.23;79.36;100223.55;105740;1251;60891;-72
2023/04/08 06:21:22;;;;;;;12.90;8.70;;;;;;;12.24;78.97;100219.55;105998;1256;61322;-72
2023/04/08 06:23:50;;;;;;;14.10;9.00;;;;;;;12.24;78.79;100224.15;105962;1256;73747;-73
2023/04/08 06:26:18;;;;;;;11.90;8.70;;;;;;;12.26;78.90;100228.71;105998;1257;70475;-72
2023/04/08 06:28:46;;;;;;;15.40;8.60;;;;;;;12.29;78.30;100228.28;106131;1257;73991;-72
2023/04/08 06:31:15;;;;;;;12.90;7.70;;;;;;;12.38;78.19;100228.98;105645;1252;61432;-72
2023/04/08 06:33:46;;;;;;;13.10;7.90;;;;;;;12.48;77.92;100226.54;106141;1254;60542;-71
2023/04/08 06:36:14;;;;;;;11.30;8.80;;;;;;;12.53;77.49;100227.10;105866;1256;73775;-70
2023/04/08 06:38:42;;;;;;;13.50;8.50;;;;;;;12.56;77.44;100233.48;106123;1257;69678;-71
2023/04/08 06:41:10;;;;;;;12.90;8.80;;;;;;;12.62;77.31;100234.01;105982;1256;72635;-71
2023/04/08 06:43:40;;;;;;;11.00;8.40;;;;;;;12.70;76.99;100238.89;106010;1256;60476;-72
2023/04/08 06:46:08;;;;;;;16.80;8.00;;;;;;;12.74;76.41;100234.83;105973;1254;60671;-72
2023/04/08 06:48:37;;;;;;;11.90;7.50;;;;;;;12.88;75.93;100237.79;106071;1256;75073;-70
2023/04/08 06:51:06;;;;;;;14.10;8.00;;;;;;;12.99;76.02;100234.05;106088;1256;258771;-71
2023/04/08 06:54:49;;;;;;;15.30;8.50;;;;;;;13.10;75.43;100234.94;102910;1292;601850;-70
2023/04/08 06:57:18;;;;;;;18.10;8.40;;;;;;;13.13;75.15;100239.61;104939;1269;61358;-70
2023/04/08 06:59:47;;;;;;;12.00;7.90;;;;;;;13.14;74.51;100240.88;104695;1268;60786;-73
2023/04/08 07:02:15;;;;;;;14.60;7.70;;;;;;;13.14;74.49;100244.20;104750;1268;70190;-73
2023/04/08 07:04:44;;;;;;;12.80;8.30;;;;;;;13.20;74.55;100246.79;104911;1270;70260;-71
2023/04/08 07:07:14;;;;;;;14.10;7.80;;;;;;;13.35;74.07;100245.91;104941;1268;72357;-71
2023/04/08 07:09:44;;;;;;;13.00;7.90;;;;;;;13.45;73.90;100248.64;105063;1265;59859;-72
2023/04/08 07:12:13;;;;;;;13.80;7.90;;;;;;;13.51;73.65;100242.43;105057;1266;59306;-72
2023/04/08 07:14:40;;;;;;;11.10;8.40;;;;;;;13.57;73.41;100245.34;105077;1265;71078;-74
2023/04/08 07:17:10;;;;;;;11.00;7.40;;;;;;;13.65;73.34;100250.06;105179;1264;71117;-76
2023/04/08 07:19:38;;;;;;;13.60;8.70;;;;;;;13.75;73.10;100248.98;105180;1264;72327;-71
2023/04/08 07:22:06;;;;;;;10.10;8.40;;;;;;;13.84;72.97;100253.05;105178;1268;59612;-72
2023/04/08 07:24:35;;;;;;;12.20;8.10;;;;;;;13.90;72.46;100248.64;105921;1253;60209;-73
2023/04/08 07:27:03;;;;;;;12.10;8.00;;;;;;;13.91;72.31;100251.79;105970;1253;73620;-73
2023/04/08 07:29:35;;;;;;;14.60;8.10;;;;;;;14.03;72.17;100251.13;105892;1253;71486;-74
2023/04/08 07:32:04;;;;;;;10.90;6.90;;;;;;;14.14;72.04;100251.95;105771;1258;72133;-74
2023/04/08 07:34:35;;;;;;;13.80;7.90;;;;;;;14.21;71.76;100254.38;105817;1258;59625;-73
2023/04/08 07:37:04;;;;;;;11.20;7.90;;;;;;;14.27;71.51;100249.38;105853;1257;60160;-73
2023/04/08 07:39:32;;;;;;;11.70;7.40;;;;;;;14.32;71.27;100251.36;105963;1253;72809;-74
2023/04/08 07:42:01;;;;;;;12.60;7.80;;;;;;;14.37;70.84;100252.46;105878;1252;71314;-74
2023/04/08 07:44:30;;;;;;;11.80;6.70;;;;;;;14.42;70.83;100249.70;105879;1258;72904;-74
2023/04/08 07:46:59;;;;;;;13.20;7.30;;;;;;;14.47;70.66;100246.45;105653;1253;61574;-72
2023/04/08 07:49:27;;;;;;;13.90;7.90;;;;;;;14.52;70.63;100246.37;105990;1251;60240;-72
2023/04/08 07:51:56;;;;;;;17.90;8.30;;;;;;;14.57;70.67;100246.66;105787;1257;73278;-72
2023/04/08 07:54:24;;;;;;;15.00;7.40;;;;;;;14.65;70.29;100252.23;105896;1253;71685;-71
2023/04/08 07:56:53;;;;;;;12.40;7.70;;;;;;;14.80;70.31;100245.45;105888;1257;73890;-73
2023/04/08 07:59:28;;;;;;;15.70;7.80;;;;;;;14.95;70.23;100249.58;105797;1253;59983;-69
2023/04/08 08:01:56;;;;;;;12.00;6.40;;;;;;;15.08;69.85;100247.83;105850;1254;61499;-71
2023/04/08 08:04:24;;;;;;;15.60;6.80;;;;;;;15.23;69.38;100243.27;105874;1256;73762;-70
2023/04/08 08:07:02;;;;;;;11.60;7.70;;;;;;;15.38;68.70;100240.42;105737;1253;70517;-76
2023/04/08 08:09:30;;;;;;;10.20;6.70;;;;;;;15.50;68.36;100242.89;105763;1253;73077;-73
2023/04/08 08:11:59;;;;;;;10.80;6.60;;;;;;;15.61;67.95;100244.61;105945;1253;61502;-71
2023/04/08 08:14:28;;;;;;;12.90;7.70;;;;;;;15.73;67.68;100245.80;105925;1255;61561;-73
2023/04/08 08:16:57;;;;;;;12.00;7.10;;;;;;;15.84;67.05;100238.01;105860;1257;73685;-73
2023/04/08 08:19:25;;;;;;;12.60;7.20;;;;;;;15.89;66.79;100240.95;105874;1257;71648;-71
2023/04/08 08:21:55;;;;;;;13.30;7.60;;;;;;;15.95;66.60;100238.33;105862;1253;73056;-74
2023/04/08 08:24:24;;;;;;;11.70;6.30;;;;;;;16.04;66.32;100236.69;105883;1254;61383;-75
2023/04/08 08:26:53;;;;;;;14.00;6.70;;;;;;;16.15;65.92;100241.17;105942;1254;60750;-74
2023/04/08 08:29:25;;;;;;;12.90;7.50;;;;;;;16.29;65.83;100240.86;105856;1257;74012;-74
2023/04/08 08:31:53;;;;;;;12.40;6.30;;;;;;;16.44;65.17;100239.67;105957;1256;70412;-75
2023/04/08 08:34:22;;;;;;;13.30;5.60;;;;;;;16.56;64.71;100243.89;105886;1254;74814;-74
2023/04/08 08:36:52;;;;;;;13.50;6.30;;;;;;;16.67;64.16;100242.11;105954;1253;61617;-73
2023/04/08 08:39:20;;;;;;;13.90;5.80;;;;;;;16.71;63.78;100244.04;105818;1257;60353;-74
2023/04/08 08:41:50;;;;;;;13.40;5.90;;;;;;;16.76;63.52;100244.70;105708;1260;71506;-76
2023/04/08 08:44:18;;;;;;;14.90;6.50;;;;;;;16.81;63.01;100239.05;105830;1255;71214;-75
2023/04/08 08:46:48;;;;;;;16.30;6.40;;;;;;;16.88;62.99;100241.74;105941;1254;73762;-74
2023/04/08 08:49:16;;;;;;;10.20;5.40;;;;;;;17.02;62.74;100238.07;105908;1254;61441;-75
2023/04/08 08:51:45;;;;;;;10.50;5.60;;;;;;;17.22;62.25;100232.21;105955;1254;61516;-74
2023/04/08 08:54:14;;;;;;;14.00;5.30;;;;;;;17.41;61.08;100228.23;105929;1253;72274;-76
2023/04/08 08:56:42;;;;;;;11.50;5.00;;;;;;;17.54;60.31;100232.05;105887;1257;68574;-76
2023/04/08 08:59:11;;;;;;;11.10;5.10;;;;;;;17.64;60.49;100232.69;105676;1258;72943;-74
2023/04/08 09:01:40;;;;;;;14.20;6.50;;;;;;;17.82;60.58;100231.02;105837;1254;60650;-75
2023/04/08 09:04:11;;;;;;;11.80;5.80;;;;;;;18.01;60.02;100232.48;106005;1253;60038;-75
2023/04/08 09:06:42;;;;;;;14.00;6.30;;;;;;;18.22;59.71;100233.53;105917;1256;74087;-74
2023/04/08 09:09:11;;;;;;;9.00;5.50;;;;;;;18.53;59.44;100232.45;105804;1254;70762;-73
2023/04/08 09:11:40;;;;;;;12.60;5.20;;;;;;;18.89;58.80;100232.55;105867;1254;72405;-75
2023/04/08 09:14:17;;;;;;;12.30;5.70;;;;;;;19.32;57.76;100227.23;105800;1254;61378;-75
2023/04/08 09:16:45;;;;;;;12.90;5.80;;;;;;;19.75;56.63;100233.50;105788;1254;60671;-75
2023/04/08 09:19:14;;;;;;;12.60;5.80;;;;;;;20.06;55.52;100230.03;105826;1258;74008;-76
2023/04/08 09:21:44;;;;;;;11.50;5.30;;;;;;;20.32;54.56;100232.36;105894;1253;70512;-74
2023/04/08 09:24:29;;;;;;;12.10;5.20;;;;;;;20.51;54.07;100233.95;105726;1258;71700;-73
2023/04/08 09:26:57;;;;;;;14.20;5.50;;;;;;;20.72;52.97;100236.27;105698;1253;60284;-74
2023/04/08 09:29:28;;;;;;;13.50;4.80;;;;;;;20.83;52.79;100233.38;105826;1257;60300;-73
2023/04/08 09:32:01;;;;;;;10.50;4.90;;;;;;;21.02;51.87;100232.77;105865;1253;73347;-76
2023/04/08 09:34:33;;;;;;;12.60;5.70;;;;;;;21.21;51.24;100234.58;105810;1254;70017;-75
2023/04/08 09:37:02;;;;;;;15.70;5.60;;;;;;;21.43;50.51;100232.89;105730;1259;72687;-75
2023/04/08 09:39:37;;;;;;;20.00;5.10;;;;;;;21.71;49.69;100232.95;105920;1256;61404;-75
2023/04/08 09:42:05;;;;;;;8.60;4.80;;;;;;;22.00;49.35;100227.30;105898;1254;61186;-74
2023/04/08 09:44:33;;;;;;;11.80;5.30;;;;;;;22.34;48.71;100227.00;105625;1254;72836;-76
2023/04/08 09:47:09;;;;;;;13.60;5.50;;;;;;;22.69;47.96;100228.77;105842;1253;71446;-74
2023/04/08 09:49:55;;;;;;;10.40;4.80;;;;;;;22.93;46.99;100226.77;106095;1258;72275;-73
2023/04/08 09:52:31;;;;;;;15.20;6.30;;;;;;;23.11;46.85;100226.79;105820;1255;61083;-73
2023/04/08 09:55:04;;;;;;;12.50;5.40;;;;;;;23.24;46.25;100231.17;105996;1258;59562;-74
2023/04/08 09:57:57;;;;;;;10.10;5.20;;;;;;;23.31;45.51;100231.98;105828;1254;73226;-74
2023/04/08 10:00:29;;;;;;;13.30;5.10;;;;;;;23.31;45.36;100228.64;105854;1257;70252;-73
2023/04/08 10:03:18;;;;;;;12.00;5.00;;;;;;;23.39;45.15;100234.77;105942;1258;72752;-76
2023/04/08 10:05:47;;;;;;;9.60;5.10;;;;;;;23.37;45.01;100233.98;105870;1261;59776;-74
2023/04/08 10:08:16;;;;;;;11.70;5.20;;;;;;;23.30;45.38;100228.96;105874;1258;61583;-73
2023/04/08 10:10:44;;;;;;;11.40;4.90;;;;;;;23.15;45.19;100229.91;105810;1255;74045;-76
2023/04/08 10:13:14;;;;;;;14.30;4.80;;;;;;;22.87;45.38;100231.01;105736;1253;71756;-74
2023/04/08 10:15:46;;;;;;;12.80;5.30;;;;;;;22.53;45.74;100231.83;105906;1258;70714;-76
2023/04/08 10:18:17;;;;;;;10.90;5.60;;;;;;;22.13;46.03;100231.55;105846;1253;61518;-74
2023/04/08 10:20:51;;;;;;;11.00;5.20;;;;;;;21.76;46.56;100235.73;105905;1255;59624;-73
2023/04/08 10:23:22;;;;;;;17.80;5.80;;;;;;;21.48;46.84;100235.96;106044;1258;74230;-75
2023/04/08 10:25:51;;;;;;;13.20;4.60;;;;;;;21.20;47.40;100235.13;105508;1255;70488;-76
2023/04/08 10:28:21;;;;;;;13.40;4.90;;;;;;;20.95;47.78;100239.52;105821;1256;73685;-75
2023/04/08 10:30:54;;;;;;;12.20;5.40;;;;;;;20.71;47.95;100237.45;106056;1253;60194;-75
2023/04/08 10:33:29;;;;;;;12.90;4.90;;;;;;;20.41;48.18;100237.18;105673;1254;61512;-72
2023/04/08 10:36:14;;;;;;;13.50;5.40;;;;;;;20.13;48.79;100240.61;105846;1253;73031;-75
2023/04/08 10:38:42;;;;;;;12.70;5.30;;;;;;;19.90;49.41;100238.98;106016;1253;69696;-78
2023/04/08 10:41:20;;;;;;;10.70;5.40;;;;;;;19.66;49.90;100242.38;105873;1253;72052;-73
2023/04/08 10:43:49;;;;;;;15.30;5.70;;;;;;;19.46;50.26;100238.78;105790;1253;61313;-75
2023/04/08 10:46:27;;;;;;;13.30;5.00;;;;;;;19.20;50.62;100245.02;105824;1253;60482;-74
2023/04/08 10:49:02;;;;;;;9.10;4.80;;;;;;;18.97;51.31;100241.89;105771;1255;72991;-76
2023/04/08 10:51:43;;;;;;;12.10;4.90;;;;;;;18.84;51.80;100244.23;105623;1253;71764;-75
2023/04/08 10:54:16;;;;;;;10.10;5.10;;;;;;;18.81;52.07;100247.15;105848;1256;70918;-75
2023/04/08 10:56:45;;;;;;;11.40;5.90;;;;;;;18.80;52.26;100246.23;105787;1259;59616;-73
2023/04/08 10:59:15;;;;;;;13.00;5.40;;;;;;;18.76;52.37;100244.43;105847;1255;60324;-73
2023/04/08 11:01:45;;;;;;;12.60;5.50;;;;;;;18.75;52.53;100246.99;105988;1253;72719;-73
2023/04/08 11:04:14;;;;;;;16.70;6.10;;;;;;;18.87;52.53;100239.84;105828;1260;69461;-75
2023/04/08 11:06:45;;;;;;;12.90;5.20;;;;;;;19.12;52.34;100238.88;105711;1253;72083;-73
2023/04/08 11:09:14;;;;;;;12.70;5.20;;;;;;;19.40;52.27;100235.48;105983;1256;60807;-73
2023/04/08 11:11:43;;;;;;;11.40;5.80;;;;;;;19.67;51.86;100230.39;105994;1254;60433;-77
2023/04/08 11:14:12;;;;;;;16.60;5.60;;;;;;;19.88;51.40;100225.30;105932;1258;73303;-77
2023/04/08 11:16:41;;;;;;;16.30;5.70;;;;;;;20.03;51.07;100223.75;105934;1256;72463;-75
2023/04/08 11:19:09;;;;;;;14.20;5.50;;;;;;;20.18;50.95;100222.20;105665;1254;70316;-74
2023/04/08 11:21:41;;;;;;;10.60;5.10;;;;;;;20.49;50.55;100221.71;105840;1253;61702;-73